Time;durP1;ratioP1;P1;durP2;ratioP2;P2;SDS_P1;SDS_P2;PMS_P1;PMS_P2;Temp;Humidity;BMP_temperature;BMP_pressure;BME280_temperature;BME280_humidity;BME280_pressure;Samples;Min_cycle;Max_cycle;Signal;HPM_P1;HPM_P2
2022/04/01 00:01:32;;;;;;;11.30;9.13;;;;;;;;;;8143591;28;20271;-58
2022/04/01 00:05:35;;;;;;;12.73;9.80;;;;;;;;;;8145778;29;20042;-58
2022/04/01 00:09:37;;;;;;;10.82;9.07;;;;;;;;;;8144303;29;20287;-58
2022/04/01 00:13:37;;;;;;;11.02;9.43;;;;;;;;;;8145638;29;20027;-58
2022/04/01 00:17:42;;;;;;;12.07;9.70;;;;;;;;;;8145518;28;20448;-57
2022/04/01 00:21:42;;;;;;;12.00;9.30;;;;;;;;;;8153673;28;20070;-57
2022/04/01 00:25:42;;;;;;;12.20;10.15;;;;;;;;;;8153196;28;20035;-57
2022/04/01 00:29:42;;;;;;;13.48;10.40;;;;;;;;;;8151386;28;20034;-57
2022/04/01 00:33:42;;;;;;;13.17;9.80;;;;;;;;;;8151147;28;20501;-58
2022/04/01 00:37:42;;;;;;;13.75;10.45;;;;;;;;;;8151394;28;20364;-57
2022/04/01 00:41:46;;;;;;;15.02;11.32;;;;;;;;;;8148487;28;20564;-57
2022/04/01 00:45:47;;;;;;;15.38;11.80;;;;;;;;;;8151579;28;20043;-57
2022/04/01 00:49:48;;;;;;;15.82;11.65;;;;;;;;;;8151535;28;20037;-57
2022/04/01 00:53:48;;;;;;;16.42;12.07;;;;;;;;;;8152590;29;20115;-57
2022/04/01 00:57:48;;;;;;;14.38;10.73;;;;;;;;;;8149798;29;20055;-58
2022/04/01 01:01:52;;;;;;;15.25;11.70;;;;;;;;;;8150304;28;20142;-57
2022/04/01 01:05:52;;;;;;;17.00;12.80;;;;;;;;;;8152667;29;20479;-57
2022/04/01 01:09:52;;;;;;;15.80;11.88;;;;;;;;;;8147841;28;20433;-57
2022/04/01 01:13:53;;;;;;;16.23;11.70;;;;;;;;;;8150266;29;20053;-57
2022/04/01 01:17:53;;;;;;;15.18;11.77;;;;;;;;;;8144116;28;20120;-58
2022/04/01 01:21:54;;;;;;;16.33;12.88;;;;;;;;;;8150210;28;20486;-57
2022/04/01 01:25:55;;;;;;;16.40;12.27;;;;;;;;;;8147068;28;20023;-57
2022/04/01 01:29:56;;;;;;;15.02;12.70;;;;;;;;;;8147854;28;20058;-57
2022/04/01 01:33:57;;;;;;;17.17;12.48;;;;;;;;;;8147188;28;20472;-57
2022/04/01 01:37:57;;;;;;;16.42;12.45;;;;;;;;;;8150256;29;20038;-57
2022/04/01 01:41:58;;;;;;;15.35;12.60;;;;;;;;;;8147421;28;20840;-58
2022/04/01 01:45:58;;;;;;;18.85;13.82;;;;;;;;;;8148657;28;20094;-58
2022/04/01 01:58:36;;;;;;;16.45;12.63;;;;;;;;;;8148976;29;20361;-58
2022/04/01 02:02:37;;;;;;;15.68;12.60;;;;;;;;;;8146956;28;20047;-56
2022/04/01 02:06:38;;;;;;;15.95;12.55;;;;;;;;;;8149139;29;20035;-57
2022/04/01 02:10:38;;;;;;;15.00;12.10;;;;;;;;;;8148145;29;20040;-57
2022/04/01 02:14:38;;;;;;;17.10;13.50;;;;;;;;;;8148925;29;20039;-57
2022/04/01 02:18:38;;;;;;;15.57;12.75;;;;;;;;;;8148181;28;20031;-57
2022/04/01 02:22:39;;;;;;;14.07;12.23;;;;;;;;;;8145412;29;20039;-57
2022/04/01 02:26:39;;;;;;;15.57;12.05;;;;;;;;;;8146563;28;20034;-57
2022/04/01 02:30:39;;;;;;;13.82;11.80;;;;;;;;;;8146713;28;20384;-57
2022/04/01 02:34:40;;;;;;;15.75;12.80;;;;;;;;;;8147162;29;20089;-57
2022/04/01 02:38:41;;;;;;;13.95;12.38;;;;;;;;;;8147026;29;20075;-58
2022/04/01 02:42:41;;;;;;;13.57;11.25;;;;;;;;;;8147420;29;20065;-58
2022/04/01 02:46:43;;;;;;;13.73;11.80;;;;;;;;;;8147694;28;20057;-57
2022/04/01 02:50:44;;;;;;;14.20;11.95;;;;;;;;;;8145851;28;20026;-58
2022/04/01 02:54:45;;;;;;;14.23;12.20;;;;;;;;;;8149637;28;20031;-59
2022/04/01 02:58:45;;;;;;;15.15;12.50;;;;;;;;;;8144732;29;20134;-57
2022/04/01 03:02:47;;;;;;;16.58;12.35;;;;;;;;;;8146205;28;20063;-58
2022/04/01 03:06:47;;;;;;;12.57;11.18;;;;;;;;;;8145593;28;20389;-57
2022/04/01 03:10:48;;;;;;;14.85;11.48;;;;;;;;;;8147242;28;20130;-58
2022/04/01 03:14:48;;;;;;;14.00;11.00;;;;;;;;;;8146449;28;20016;-58
2022/04/01 03:18:49;;;;;;;13.07;11.63;;;;;;;;;;8146343;28;20078;-57
2022/04/01 03:22:50;;;;;;;13.77;11.33;;;;;;;;;;8146037;28;20094;-57
2022/04/01 03:26:50;;;;;;;12.35;11.05;;;;;;;;;;8146941;29;20283;-57
2022/04/01 03:30:51;;;;;;;14.60;11.23;;;;;;;;;;8145901;28;20076;-58
2022/04/01 03:34:51;;;;;;;12.85;11.20;;;;;;;;;;8147916;29;20118;-57
2022/04/01 03:38:52;;;;;;;13.32;11.48;;;;;;;;;;8144878;29;20547;-57
2022/04/01 03:42:52;;;;;;;12.32;10.55;;;;;;;;;;8145565;29;20031;-58
2022/04/01 03:46:56;;;;;;;11.83;10.37;;;;;;;;;;8145960;28;20039;-58
2022/04/01 03:50:57;;;;;;;11.70;10.48;;;;;;;;;;8142555;28;20877;-57
2022/04/01 03:55:01;;;;;;;13.20;11.23;;;;;;;;;;8146331;29;20059;-58
2022/04/01 03:59:05;;;;;;;12.07;10.88;;;;;;;;;;8146362;29;20023;-58
2022/04/01 04:03:07;;;;;;;12.52;11.02;;;;;;;;;;8143246;28;20047;-57
2022/04/01 04:07:08;;;;;;;13.82;12.23;;;;;;;;;;8146216;28;20038;-58
2022/04/01 04:11:09;;;;;;;12.20;10.82;;;;;;;;;;8144614;29;20134;-57
2022/04/01 04:15:09;;;;;;;13.05;11.35;;;;;;;;;;8146497;28;20035;-58
2022/04/01 04:19:22;;;;;;;12.60;11.27;;;;;;;;;;8145694;28;20090;-57
2022/04/01 04:23:34;;;;;;;12.68;11.20;;;;;;;;;;8146002;28;20110;-57
2022/04/01 04:27:36;;;;;;;13.07;11.65;;;;;;;;;;8145656;29;20035;-57
2022/04/01 04:31:37;;;;;;;13.07;11.25;;;;;;;;;;8143715;28;20294;-58
2022/04/01 04:35:38;;;;;;;12.90;11.25;;;;;;;;;;8142729;29;20374;-58
2022/04/01 04:39:38;;;;;;;14.50;12.15;;;;;;;;;;8143076;28;20090;-58
2022/04/01 04:43:41;;;;;;;13.60;11.45;;;;;;;;;;8145978;29;20117;-57
2022/04/01 04:47:41;;;;;;;12.93;11.50;;;;;;;;;;8139736;28;20039;-57
2022/04/01 04:51:42;;;;;;;14.45;12.18;;;;;;;;;;8143284;28;20173;-57
2022/04/01 04:55:44;;;;;;;11.95;10.57;;;;;;;;;;8143629;29;20740;-57
2022/04/01 04:59:45;;;;;;;11.93;10.52;;;;;;;;;;8144464;29;20450;-58
2022/04/01 05:04:05;;;;;;;12.73;11.40;;;;;;;;;;8146285;28;20476;-58
2022/04/01 05:08:25;;;;;;;12.70;11.23;;;;;;;;;;8152733;28;20162;-57
2022/04/01 05:12:25;;;;;;;13.13;11.73;;;;;;;;;;8146320;28;20070;-57
2022/04/01 05:16:40;;;;;;;13.70;11.88;;;;;;;;;;8150695;28;20412;-57
2022/04/01 05:20:40;;;;;;;;;;;;;;;;;;8149008;28;20473;-58
2022/04/01 05:24:47;;;;;;;11.88;10.57;;;;;;;;;;8148363;28;19962;-58
2022/04/01 05:28:51;;;;;;;12.73;11.10;;;;;;;;;;8148143;29;20070;-58
2022/04/01 05:33:03;;;;;;;11.25;9.95;;;;;;;;;;8145486;28;20043;-58
2022/04/01 05:37:03;;;;;;;11.95;10.02;;;;;;;;;;8149452;29;20031;-58
2022/04/01 05:41:05;;;;;;;13.27;11.23;;;;;;;;;;8146906;29;20035;-58
2022/04/01 05:45:06;;;;;;;12.85;10.68;;;;;;;;;;8150978;28;20042;-58
2022/04/01 05:49:07;;;;;;;12.00;10.20;;;;;;;;;;8146799;28;20572;-57
2022/04/01 05:53:10;;;;;;;10.02;9.02;;;;;;;;;;8148381;29;20020;-58
2022/04/01 05:57:11;;;;;;;12.68;10.18;;;;;;;;;;8149849;29;20063;-56
2022/04/01 06:01:14;;;;;;;11.15;9.75;;;;;;;;;;8147605;28;20038;-58
2022/04/01 06:05:26;;;;;;;11.13;9.88;;;;;;;;;;8148499;28;20031;-58
2022/04/01 06:09:26;;;;;;;10.43;9.20;;;;;;;;;;8147059;29;20031;-58
2022/04/01 06:13:39;;;;;;;9.82;8.82;;;;;;;;;;8148151;28;20034;-58
2022/04/01 06:17:39;;;;;;;10.07;9.00;;;;;;;;;;8146680;28;20125;-58
2022/04/01 06:21:46;;;;;;;9.48;8.55;;;;;;;;;;8147686;28;20035;-58
2022/04/01 06:25:51;;;;;;;10.45;8.70;;;;;;;;;;8140031;28;20027;-58
2022/04/01 06:29:58;;;;;;;9.57;8.57;;;;;;;;;;8146691;29;20023;-58
2022/04/01 06:34:03;;;;;;;8.50;7.60;;;;;;;;;;8147188;28;20039;-58
2022/04/01 06:38:05;;;;;;;8.63;7.75;;;;;;;;;;8143303;29;20043;-58
2022/04/01 06:42:05;;;;;;;7.55;6.78;;;;;;;;;;8144895;29;20944;-57
2022/04/01 06:46:07;;;;;;;8.00;7.10;;;;;;;;;;8146041;28;20844;-58
2022/04/01 06:50:09;;;;;;;7.53;6.72;;;;;;;;;;8145944;28;20061;-58
2022/04/01 06:54:09;;;;;;;7.68;6.88;;;;;;;;;;8146254;29;20122;-58
2022/04/01 06:58:11;;;;;;;6.95;6.30;;;;;;;;;;8139967;29;20027;-58
2022/04/01 07:02:11;;;;;;;6.97;6.28;;;;;;;;;;8143938;28;20166;-57
2022/04/01 07:06:11;;;;;;;6.90;6.18;;;;;;;;;;8149171;29;20038;-58
2022/04/01 07:10:12;;;;;;;7.50;6.38;;;;;;;;;;8143684;28;20414;-58
2022/04/01 07:14:12;;;;;;;6.60;5.97;;;;;;;;;;8147536;29;20042;-58
2022/04/01 07:18:12;;;;;;;7.40;6.15;;;;;;;;;;8142892;28;20047;-58
2022/04/01 07:22:13;;;;;;;8.25;6.88;;;;;;;;;;8145696;28;20141;-58
2022/04/01 07:26:13;;;;;;;8.00;6.77;;;;;;;;;;8146436;28;20042;-58
2022/04/01 07:30:13;;;;;;;7.88;6.85;;;;;;;;;;8144897;28;20291;-60
2022/04/01 07:34:16;;;;;;;6.75;5.90;;;;;;;;;;8145799;29;20023;-58
2022/04/01 07:38:16;;;;;;;8.77;6.65;;;;;;;;;;8146452;29;20066;-58
2022/04/01 07:42:16;;;;;;;7.57;6.60;;;;;;;;;;8142679;28;20035;-58
2022/04/01 07:46:16;;;;;;;9.27;6.53;;;;;;;;;;8146065;28;20086;-58
2022/04/01 07:50:17;;;;;;;7.13;5.95;;;;;;;;;;8144411;28;20032;-58
2022/04/01 07:54:17;;;;;;;6.80;6.07;;;;;;;;;;8144060;28;20114;-57
2022/04/01 07:58:18;;;;;;;10.18;6.47;;;;;;;;;;8144041;28;20066;-57
2022/04/01 08:02:18;;;;;;;7.53;5.72;;;;;;;;;;8144658;28;20524;-58
2022/04/01 08:06:18;;;;;;;9.30;6.18;;;;;;;;;;8146101;28;20679;-58
2022/04/01 08:10:19;;;;;;;8.77;6.18;;;;;;;;;;8141744;28;20045;-58
2022/04/01 08:14:19;;;;;;;6.78;5.85;;;;;;;;;;8144248;29;20446;-58
2022/04/01 08:18:19;;;;;;;10.85;8.45;;;;;;;;;;8145471;28;20498;-58
2022/04/01 08:22:20;;;;;;;7.43;6.22;;;;;;;;;;8146173;28;20023;-58
2022/04/01 08:26:20;;;;;;;9.10;6.10;;;;;;;;;;8143905;28;20365;-57
2022/04/01 08:30:21;;;;;;;8.40;6.40;;;;;;;;;;8142841;28;20143;-58
2022/04/01 08:34:21;;;;;;;8.50;6.88;;;;;;;;;;8145332;28;20258;-58
2022/04/01 08:38:21;;;;;;;7.68;6.30;;;;;;;;;;8147532;29;20106;-58
2022/04/01 08:42:21;;;;;;;7.88;6.30;;;;;;;;;;8148662;29;20032;-58
2022/04/01 08:46:22;;;;;;;7.88;6.47;;;;;;;;;;8151348;28;20847;-58
2022/04/01 08:50:22;;;;;;;8.55;5.60;;;;;;;;;;8149730;28;20295;-58
2022/04/01 08:54:22;;;;;;;9.90;5.93;;;;;;;;;;8150841;28;20028;-58
2022/04/01 08:58:23;;;;;;;9.55;5.88;;;;;;;;;;8150842;28;20101;-58
2022/04/01 09:02:23;;;;;;;8.70;5.93;;;;;;;;;;8148814;28;20078;-58
2022/04/01 09:06:24;;;;;;;7.40;6.07;;;;;;;;;;8150752;28;20031;-58
2022/04/01 09:10:24;;;;;;;8.05;6.13;;;;;;;;;;8149102;29;20042;-58
2022/04/01 09:14:24;;;;;;;8.60;5.75;;;;;;;;;;8151630;29;20236;-58
2022/04/01 09:18:43;;;;;;;9.80;5.80;;;;;;;;;;8149873;28;20043;-57
2022/04/01 09:22:44;;;;;;;10.02;5.63;;;;;;;;;;8150830;28;20111;-58
2022/04/01 09:26:44;;;;;;;6.00;4.97;;;;;;;;;;8148350;28;20035;-58
2022/04/01 09:30:44;;;;;;;10.57;5.55;;;;;;;;;;8148970;28;20719;-58
2022/04/01 09:34:48;;;;;;;9.02;5.68;;;;;;;;;;8149736;28;20126;-58
2022/04/01 09:38:55;;;;;;;6.63;5.25;;;;;;;;;;8149444;28;20309;-58
2022/04/01 09:42:59;;;;;;;6.85;4.97;;;;;;;;;;8146253;28;20098;-58
2022/04/01 09:47:01;;;;;;;7.30;5.57;;;;;;;;;;8149594;28;20049;-58
2022/04/01 09:51:01;;;;;;;7.90;5.03;;;;;;;;;;8147357;28;20130;-58
2022/04/01 09:55:01;;;;;;;7.72;5.20;;;;;;;;;;8147941;28;21243;-58
2022/04/01 09:59:03;;;;;;;6.25;4.90;;;;;;;;;;8147746;29;20027;-58
2022/04/01 10:03:06;;;;;;;7.55;4.95;;;;;;;;;;8149306;28;20050;-58
2022/04/01 10:07:08;;;;;;;6.63;4.82;;;;;;;;;;8147764;28;20031;-57
2022/04/01 10:11:09;;;;;;;6.88;5.15;;;;;;;;;;8148560;28;20035;-58
2022/04/01 10:15:10;;;;;;;8.38;5.30;;;;;;;;;;8146951;28;20038;-58
2022/04/01 10:19:12;;;;;;;6.60;5.15;;;;;;;;;;8148705;28;20027;-58
2022/04/01 10:23:12;;;;;;;6.70;4.97;;;;;;;;;;8145917;28;20089;-58
2022/04/01 10:27:30;;;;;;;6.55;4.70;;;;;;;;;;8144085;28;20112;-57
2022/04/01 10:31:30;;;;;;;6.95;4.85;;;;;;;;;;8143927;28;20051;-58
2022/04/01 10:35:32;;;;;;;8.60;4.90;;;;;;;;;;8143627;28;20035;-58
2022/04/01 10:39:46;;;;;;;6.63;5.45;;;;;;;;;;8142763;28;20824;-58
2022/04/01 10:43:50;;;;;;;6.00;5.30;;;;;;;;;;8143956;29;20047;-58
2022/04/01 10:52:18;;;;;;;4.85;4.40;;;;;;;;;;8142721;28;20058;-58
2022/04/01 10:56:25;;;;;;;5.30;4.50;;;;;;;;;;8142512;29;20055;-57
2022/04/01 11:00:28;;;;;;;5.45;4.55;;;;;;;;;;8142182;28;20036;-58
2022/04/01 11:04:30;;;;;;;7.82;4.45;;;;;;;;;;8142725;29;20584;-57
2022/04/01 11:08:30;;;;;;;5.95;5.25;;;;;;;;;;8139468;28;20764;-58
2022/04/01 11:12:32;;;;;;;5.28;4.22;;;;;;;;;;8139410;28;20586;-58
2022/04/01 11:16:49;;;;;;;5.95;4.72;;;;;;;;;;8142119;28;20144;-58
2022/04/01 11:20:55;;;;;;;5.60;4.28;;;;;;;;;;8142325;28;20525;-58
2022/04/01 11:24:56;;;;;;;7.05;4.90;;;;;;;;;;8139350;28;20794;-57
2022/04/01 11:28:56;;;;;;;4.55;4.13;;;;;;;;;;8141311;28;20444;-57
2022/04/01 11:32:56;;;;;;;4.75;3.92;;;;;;;;;;8142684;28;20117;-58
2022/04/01 11:37:00;;;;;;;5.95;4.30;;;;;;;;;;8144274;28;20034;-59
2022/04/01 11:41:03;;;;;;;4.60;3.92;;;;;;;;;;8145032;29;20717;-57
2022/04/01 11:45:06;;;;;;;4.57;3.80;;;;;;;;;;8146533;28;21035;-58
2022/04/01 11:49:07;;;;;;;4.93;4.30;;;;;;;;;;8146015;28;20027;-58
2022/04/01 11:53:08;;;;;;;4.22;3.53;;;;;;;;;;8145536;29;20094;-58
2022/04/01 11:57:10;;;;;;;5.32;3.65;;;;;;;;;;8143078;28;20028;-57
2022/04/01 12:01:10;;;;;;;4.75;4.35;;;;;;;;;;8142677;28;20745;-57
2022/04/01 12:05:10;;;;;;;4.90;3.90;;;;;;;;;;8142876;29;20460;-58
2022/04/01 12:09:11;;;;;;;4.70;3.92;;;;;;;;;;8141706;28;20097;-58
2022/04/01 12:13:11;;;;;;;4.70;3.50;;;;;;;;;;8145981;28;20227;-57
2022/04/01 12:17:11;;;;;;;4.20;3.67;;;;;;;;;;8152165;28;20039;-57
2022/04/01 12:21:15;;;;;;;4.20;3.63;;;;;;;;;;8151564;28;20110;-57
2022/04/01 12:25:15;;;;;;;4.63;4.00;;;;;;;;;;8153386;28;20031;-60
2022/04/01 12:29:19;;;;;;;7.60;4.05;;;;;;;;;;8152058;28;20028;-57
2022/04/01 12:33:19;;;;;;;4.82;3.95;;;;;;;;;;8150316;28;20074;-58
2022/04/01 12:37:20;;;;;;;4.18;3.78;;;;;;;;;;8152949;28;20023;-57
2022/04/01 12:41:20;;;;;;;5.38;3.58;;;;;;;;;;8151979;28;20027;-58
2022/04/01 12:45:20;;;;;;;4.70;3.90;;;;;;;;;;8153842;28;20037;-58
2022/04/01 12:49:21;;;;;;;5.10;4.05;;;;;;;;;;8148761;28;20046;-58
2022/04/01 12:53:21;;;;;;;4.22;3.70;;;;;;;;;;8153699;28;20459;-57
2022/04/01 12:57:22;;;;;;;4.82;3.80;;;;;;;;;;8149774;28;20073;-60
2022/04/01 13:01:29;;;;;;;6.33;3.70;;;;;;;;;;8153589;28;20044;-59
2022/04/01 13:05:29;;;;;;;4.55;3.80;;;;;;;;;;8159381;29;20266;-58
2022/04/01 13:09:29;;;;;;;5.47;3.63;;;;;;;;;;8156629;28;20030;-60
2022/04/01 13:13:33;;;;;;;6.37;3.50;;;;;;;;;;8156244;28;20097;-60
2022/04/01 13:17:40;;;;;;;4.73;3.33;;;;;;;;;;8149797;28;20793;-57
2022/04/01 13:21:40;;;;;;;9.90;3.67;;;;;;;;;;8148846;28;22158;-60
2022/04/01 13:25:40;;;;;;;4.20;3.63;;;;;;;;;;8145431;28;21750;-60
2022/04/01 13:29:41;;;;;;;4.40;3.90;;;;;;;;;;8150375;29;20507;-59
2022/04/01 13:33:43;;;;;;;4.18;3.33;;;;;;;;;;8148681;28;20159;-59
2022/04/01 13:37:43;;;;;;;3.67;3.38;;;;;;;;;;8150637;29;20027;-59
2022/04/01 13:41:43;;;;;;;3.55;3.25;;;;;;;;;;8151530;28;20041;-60
2022/04/01 13:45:44;;;;;;;3.50;3.20;;;;;;;;;;8149863;28;20953;-60
2022/04/01 13:49:44;;;;;;;4.63;3.33;;;;;;;;;;8151125;28;20123;-61
2022/04/01 13:53:44;;;;;;;3.88;3.40;;;;;;;;;;8149506;29;20027;-60
2022/04/01 13:57:46;;;;;;;4.70;3.13;;;;;;;;;;8151402;28;20028;-59
2022/04/01 14:01:46;;;;;;;3.20;2.90;;;;;;;;;;8150073;28;20035;-60
2022/04/01 14:05:47;;;;;;;3.58;3.28;;;;;;;;;;8150974;28;20051;-60
2022/04/01 14:09:47;;;;;;;4.82;3.60;;;;;;;;;;8151371;29;20027;-60
2022/04/01 14:13:47;;;;;;;4.57;3.00;;;;;;;;;;8151079;28;20038;-56
2022/04/01 14:17:47;;;;;;;3.60;3.30;;;;;;;;;;8149866;28;20528;-61
2022/04/01 14:21:47;;;;;;;4.20;3.80;;;;;;;;;;8150974;28;20496;-60
2022/04/01 14:25:48;;;;;;;4.43;3.78;;;;;;;;;;8151294;28;20025;-60
2022/04/01 14:34:06;;;;;;;5.03;4.22;;;;;;;;;;8152333;29;20423;-60
2022/04/01 14:38:08;;;;;;;4.68;4.20;;;;;;;;;;8148925;28;20535;-60
2022/04/01 14:42:08;;;;;;;3.80;3.40;;;;;;;;;;8149997;29;20035;-60
2022/04/01 14:46:08;;;;;;;3.78;3.47;;;;;;;;;;8151107;28;21062;-56
2022/04/01 14:50:10;;;;;;;3.90;3.50;;;;;;;;;;8150919;28;20300;-60
2022/04/01 14:54:11;;;;;;;4.95;3.70;;;;;;;;;;8150430;29;20107;-61
2022/04/01 14:58:12;;;;;;;4.47;4.00;;;;;;;;;;8149841;29;20118;-60
2022/04/01 15:02:13;;;;;;;4.03;3.60;;;;;;;;;;8148445;28;20032;-60
2022/04/01 15:06:14;;;;;;;3.92;3.53;;;;;;;;;;8148678;28;20038;-59
2022/04/01 15:10:17;;;;;;;3.50;3.20;;;;;;;;;;8147936;28;20062;-61
2022/04/01 15:14:17;;;;;;;3.38;3.08;;;;;;;;;;8144372;29;20055;-61
2022/04/01 15:18:17;;;;;;;3.50;3.20;;;;;;;;;;8147494;28;20047;-59
2022/04/01 15:22:18;;;;;;;3.35;3.05;;;;;;;;;;8145455;28;20274;-60
2022/04/01 15:26:18;;;;;;;3.47;3.17;;;;;;;;;;8147602;28;20452;-60
2022/04/01 15:30:18;;;;;;;3.00;2.80;;;;;;;;;;8146647;28;20127;-60
2022/04/01 15:34:18;;;;;;;3.20;2.95;;;;;;;;;;8146349;28;20289;-60
2022/04/01 15:38:22;;;;;;;3.53;3.22;;;;;;;;;;8139266;28;20118;-60
2022/04/01 15:42:23;;;;;;;3.53;3.17;;;;;;;;;;8142472;28;20245;-61
2022/04/01 15:46:33;;;;;;;3.38;3.08;;;;;;;;;;8140374;28;20050;-60
2022/04/01 15:50:35;;;;;;;3.95;3.00;;;;;;;;;;8143267;28;20512;-61
2022/04/01 15:54:35;;;;;;;3.28;2.97;;;;;;;;;;8144260;28;20027;-61
2022/04/01 15:58:35;;;;;;;3.70;3.40;;;;;;;;;;8141438;28;20473;-61
2022/04/01 16:02:36;;;;;;;3.45;3.15;;;;;;;;;;8142914;28;20384;-60
2022/04/01 16:06:36;;;;;;;3.88;3.47;;;;;;;;;;8144110;28;20286;-60
2022/04/01 16:10:39;;;;;;;3.67;3.05;;;;;;;;;;8143497;28;20138;-60
2022/04/01 16:14:40;;;;;;;3.72;3.42;;;;;;;;;;8144654;28;20062;-60
2022/04/01 16:18:40;;;;;;;3.35;3.05;;;;;;;;;;8141438;28;20809;-58
2022/04/01 16:22:41;;;;;;;3.38;3.08;;;;;;;;;;8139944;28;20750;-61
2022/04/01 16:26:42;;;;;;;3.75;3.22;;;;;;;;;;8142323;28;20020;-56
2022/04/01 16:30:42;;;;;;;3.78;3.47;;;;;;;;;;8140656;28;20134;-57
2022/04/01 16:34:42;;;;;;;4.13;3.72;;;;;;;;;;8141302;28;20034;-58
2022/04/01 16:38:42;;;;;;;3.83;3.33;;;;;;;;;;8140542;28;20833;-58
2022/04/01 16:42:42;;;;;;;3.55;3.25;;;;;;;;;;8142032;28;20287;-58
2022/04/01 16:46:43;;;;;;;4.40;3.70;;;;;;;;;;8136192;28;20166;-57
2022/04/01 16:50:43;;;;;;;5.13;3.65;;;;;;;;;;8134755;28;20385;-57
2022/04/01 16:54:43;;;;;;;3.72;3.42;;;;;;;;;;8140397;28;20440;-57
2022/04/01 16:58:44;;;;;;;4.00;3.60;;;;;;;;;;8142008;28;20266;-57
2022/04/01 17:02:45;;;;;;;5.07;3.70;;;;;;;;;;8147757;28;20079;-57
2022/04/01 17:15:23;;;;;;;4.88;3.72;;;;;;;;;;8146782;28;20576;-56
2022/04/01 17:19:23;;;;;;;4.22;3.47;;;;;;;;;;8145086;28;20105;-56
2022/04/01 17:23:24;;;;;;;4.28;3.80;;;;;;;;;;8147273;28;20024;-56
2022/04/01 17:27:25;;;;;;;4.38;3.70;;;;;;;;;;8147035;28;20703;-56
2022/04/01 17:31:25;;;;;;;5.05;4.05;;;;;;;;;;8144910;28;20061;-56
2022/04/01 17:35:29;;;;;;;4.18;3.72;;;;;;;;;;8146291;28;20116;-56
2022/04/01 17:39:30;;;;;;;3.95;3.55;;;;;;;;;;8146833;28;20027;-56
2022/04/01 17:43:30;;;;;;;4.05;3.65;;;;;;;;;;8146823;28;20050;-57
2022/04/01 17:47:31;;;;;;;4.82;3.50;;;;;;;;;;8146273;28;20039;-57
2022/04/01 17:51:34;;;;;;;4.18;3.72;;;;;;;;;;8148265;28;20110;-57
2022/04/01 17:55:37;;;;;;;4.88;3.58;;;;;;;;;;8149311;29;20031;-56
2022/04/01 17:59:41;;;;;;;5.32;3.80;;;;;;;;;;8145360;29;20039;-56
2022/04/01 18:03:43;;;;;;;4.65;3.90;;;;;;;;;;8144991;28;20058;-56
2022/04/01 18:07:43;;;;;;;4.90;3.80;;;;;;;;;;8143596;28;20603;-56
2022/04/01 18:11:44;;;;;;;4.55;3.78;;;;;;;;;;8144281;28;20035;-57
2022/04/01 18:15:44;;;;;;;5.20;4.28;;;;;;;;;;8144813;28;20556;-55
2022/04/01 18:19:45;;;;;;;5.45;4.32;;;;;;;;;;8145650;28;20481;-57
2022/04/01 18:23:45;;;;;;;5.57;3.88;;;;;;;;;;8143739;28;20684;-57
2022/04/01 18:28:00;;;;;;;5.00;3.80;;;;;;;;;;8144794;28;20083;-57
2022/04/01 18:32:05;;;;;;;7.55;4.07;;;;;;;;;;8144069;28;20035;-56
2022/04/01 18:36:05;;;;;;;5.05;4.25;;;;;;;;;;8144443;28;20023;-57
2022/04/01 18:40:07;;;;;;;4.75;4.10;;;;;;;;;;8143372;28;20043;-57
2022/04/01 18:44:08;;;;;;;4.47;3.92;;;;;;;;;;8145068;28;20118;-57
2022/04/01 18:48:08;;;;;;;4.80;3.90;;;;;;;;;;8144421;28;20101;-57
2022/04/01 18:52:10;;;;;;;6.50;4.03;;;;;;;;;;8143175;28;20042;-57
2022/04/01 18:56:10;;;;;;;5.55;3.67;;;;;;;;;;8142253;28;20258;-56
2022/04/01 19:00:13;;;;;;;5.85;4.35;;;;;;;;;;8142115;28;20501;-56
2022/04/01 19:04:14;;;;;;;4.85;3.85;;;;;;;;;;8143964;28;20445;-56
2022/04/01 19:08:27;;;;;;;5.38;4.15;;;;;;;;;;8145283;28;20041;-57
2022/04/01 19:12:28;;;;;;;4.82;4.32;;;;;;;;;;8141462;28;20176;-57
2022/04/01 19:16:29;;;;;;;4.90;4.40;;;;;;;;;;8142632;28;20127;-56
2022/04/01 19:20:31;;;;;;;4.50;3.72;;;;;;;;;;8144391;28;20027;-57
2022/04/01 19:24:32;;;;;;;4.90;3.88;;;;;;;;;;8143702;28;20042;-57
2022/04/01 19:28:32;;;;;;;3.72;3.42;;;;;;;;;;8142048;28;20023;-55
2022/04/01 19:32:33;;;;;;;4.70;4.10;;;;;;;;;;8144120;28;20882;-56
2022/04/01 19:36:33;;;;;;;5.45;3.47;;;;;;;;;;8141784;28;20635;-57
2022/04/01 19:40:33;;;;;;;4.20;3.80;;;;;;;;;;8145681;28;20824;-57
2022/04/01 19:44:34;;;;;;;4.13;3.63;;;;;;;;;;8143922;28;20274;-57
2022/04/01 19:48:34;;;;;;;3.67;3.33;;;;;;;;;;8140804;28;20046;-57
2022/04/01 19:52:35;;;;;;;3.90;3.42;;;;;;;;;;8141327;28;20050;-56
2022/04/01 19:56:36;;;;;;;3.67;3.35;;;;;;;;;;8142180;29;20045;-57
2022/04/01 20:00:36;;;;;;;4.15;3.58;;;;;;;;;;8141416;28;20070;-57
2022/04/01 20:04:36;;;;;;;3.63;3.33;;;;;;;;;;8142640;28;20028;-57
2022/04/01 20:08:36;;;;;;;4.28;3.50;;;;;;;;;;8140785;28;20070;-57
2022/04/01 20:12:38;;;;;;;3.40;3.10;;;;;;;;;;8143228;29;20031;-56
2022/04/01 20:16:39;;;;;;;3.70;3.40;;;;;;;;;;8145670;28;20160;-56
2022/04/01 20:20:40;;;;;;;4.95;3.25;;;;;;;;;;8146943;28;20063;-56
2022/04/01 20:24:40;;;;;;;3.65;3.28;;;;;;;;;;8148394;28;20031;-56
2022/04/01 20:28:40;;;;;;;4.72;3.35;;;;;;;;;;8147297;28;20082;-56
2022/04/01 20:32:40;;;;;;;3.78;3.42;;;;;;;;;;8148418;28;20884;-57
2022/04/01 20:36:41;;;;;;;4.67;3.50;;;;;;;;;;8154050;29;20995;-56
2022/04/01 20:40:41;;;;;;;3.95;3.47;;;;;;;;;;8152304;28;21054;-57
2022/04/01 20:44:41;;;;;;;3.97;3.22;;;;;;;;;;8155231;28;20058;-56
2022/04/01 20:48:41;;;;;;;5.93;3.33;;;;;;;;;;8154354;28;20043;-57
2022/04/01 20:52:42;;;;;;;5.23;3.27;;;;;;;;;;8153189;28;20096;-57
2022/04/01 20:56:42;;;;;;;4.45;3.42;;;;;;;;;;8153208;29;20387;-57
2022/04/01 21:00:43;;;;;;;3.90;3.30;;;;;;;;;;8151450;28;20058;-57
2022/04/01 21:04:43;;;;;;;4.63;3.40;;;;;;;;;;8151475;28;20540;-56
2022/04/01 21:08:43;;;;;;;3.70;3.30;;;;;;;;;;8151557;28;20027;-56
2022/04/01 21:12:44;;;;;;;3.80;3.30;;;;;;;;;;8151785;28;20597;-57
2022/04/01 21:16:44;;;;;;;5.03;3.63;;;;;;;;;;8151783;28;20884;-57
2022/04/01 21:20:44;;;;;;;5.22;3.45;;;;;;;;;;8152406;28;20031;-57
2022/04/01 21:24:44;;;;;;;5.80;3.17;;;;;;;;;;8150763;28;20030;-56
2022/04/01 21:28:45;;;;;;;3.90;3.50;;;;;;;;;;8152760;28;20378;-57
2022/04/01 21:32:45;;;;;;;4.07;3.30;;;;;;;;;;8150237;28;20035;-57
2022/04/01 21:36:46;;;;;;;7.32;3.40;;;;;;;;;;8152476;29;20154;-57
2022/04/01 21:40:46;;;;;;;5.18;3.83;;;;;;;;;;8148771;28;20101;-57
2022/04/01 21:44:47;;;;;;;6.35;3.80;;;;;;;;;;8143942;28;20482;-57
2022/04/01 21:48:47;;;;;;;4.47;3.63;;;;;;;;;;8147272;28;20891;-57
2022/04/01 21:52:48;;;;;;;4.18;2.95;;;;;;;;;;8154199;28;20243;-57
2022/04/01 21:56:48;;;;;;;4.22;3.83;;;;;;;;;;8150646;28;20028;-57
2022/04/01 22:01:10;;;;;;;4.88;3.20;;;;;;;;;;8149678;28;20417;-57
2022/04/01 22:05:10;;;;;;;4.72;3.42;;;;;;;;;;8150845;28;20283;-56
2022/04/01 22:09:11;;;;;;;11.73;3.50;;;;;;;;;;8151903;29;20027;-57
2022/04/01 22:13:11;;;;;;;4.35;3.28;;;;;;;;;;8151241;28;20486;-57
2022/04/01 22:17:14;;;;;;;3.67;3.10;;;;;;;;;;8149920;28;20070;-57
2022/04/01 22:21:15;;;;;;;3.78;3.28;;;;;;;;;;8147902;28;20030;-55
2022/04/01 22:25:15;;;;;;;3.63;3.33;;;;;;;;;;8149215;28;20085;-57
2022/04/01 22:29:15;;;;;;;3.65;3.15;;;;;;;;;;8150787;29;20050;-56
2022/04/01 22:33:16;;;;;;;6.72;3.50;;;;;;;;;;8149203;28;20059;-55
2022/04/01 22:37:19;;;;;;;4.68;3.38;;;;;;;;;;8152381;29;20035;-57
2022/04/01 22:41:19;;;;;;;3.33;2.80;;;;;;;;;;8149217;28;20039;-56
2022/04/01 22:45:20;;;;;;;5.13;3.28;;;;;;;;;;8147827;28;20042;-56
2022/04/01 22:49:20;;;;;;;4.65;3.25;;;;;;;;;;8148013;28;20118;-56
2022/04/01 22:53:23;;;;;;;4.57;3.25;;;;;;;;;;8149977;28;20031;-56
2022/04/01 22:57:30;;;;;;;4.13;3.50;;;;;;;;;;8148057;28;21235;-56
2022/04/01 23:01:30;;;;;;;5.95;3.20;;;;;;;;;;8157523;28;21022;-56
2022/04/01 23:05:33;;;;;;;4.47;3.70;;;;;;;;;;8148433;28;20082;-55
2022/04/01 23:09:34;;;;;;;3.75;2.85;;;;;;;;;;8148967;28;20039;-56
2022/04/01 23:13:34;;;;;;;3.83;3.42;;;;;;;;;;8155242;28;20027;-56
2022/04/01 23:17:35;;;;;;;4.80;3.30;;;;;;;;;;8152375;28;20035;-56
2022/04/01 23:21:36;;;;;;;4.32;3.60;;;;;;;;;;8148391;28;20039;-56
2022/04/01 23:25:36;;;;;;;4.50;3.33;;;;;;;;;;8148897;28;20040;-56
2022/04/01 23:29:36;;;;;;;6.07;3.50;;;;;;;;;;8153196;29;20117;-56
2022/04/01 23:33:36;;;;;;;4.68;3.47;;;;;;;;;;8148125;28;20053;-57
2022/04/01 23:37:37;;;;;;;5.60;3.22;;;;;;;;;;8147803;28;20461;-56
2022/04/01 23:41:37;;;;;;;5.13;3.25;;;;;;;;;;8150759;29;20121;-57
2022/04/01 23:45:38;;;;;;;6.60;3.35;;;;;;;;;;8157864;28;20051;-57
2022/04/01 23:49:40;;;;;;;3.25;2.95;;;;;;;;;;8157849;28;20067;-56
2022/04/01 23:53:40;;;;;;;4.50;3.28;;;;;;;;;;8158613;29;20380;-57
2022/04/01 23:57:41;;;;;;;4.82;3.40;;;;;;;;;;8157455;29;20027;-56
